Stoumont, Belgium
Current Conditions -  °F | °C
As of 9:25 PM on Saturday 25 Oct 2014 (Local Time) from EBLB Reporting Station
Overcast Overcast  
Wind Chill: 46°   Ceiling: 2000
Heat Index: 48°   Visibility: 6mi
Dew Point: 46°   Wind: 6mph
Humidity: 93%   Direction: 280°W
Pressure: 30.21"   Gusts: NA
Location:  50.41°N, 5.81°E
Report Text: EBLB 251925Z AUTO 28005KT 9999 FEW013/// SCT017/// OVC020/// 09/08 Q1023 WHT
Loading
Personal Weather Stations






























Interactive Weather Map
Tropical Storm Tracking
New forecast layout! Learn more

10-Day Weather Forecast

Advertisements
Track Severe Weather on mobile